createdAt,value
2023-02-18T00:38:01.371Z,11.70
2023-02-18T00:39:13.571Z,11.65
2023-02-18T00:40:18.595Z,11.69
2023-02-18T00:41:27.922Z,11.66
2023-02-18T00:42:32.475Z,11.66
2023-02-18T00:43:39.165Z,11.64
2023-02-18T00:44:49.994Z,11.71
2023-02-18T00:46:01.925Z,11.60
2023-02-18T00:47:13.288Z,11.64
2023-02-18T00:48:21.612Z,11.66
2023-02-18T00:49:26.132Z,11.63
2023-02-18T00:50:35.963Z,11.60
2023-02-18T00:51:45.385Z,11.69
2023-02-18T00:52:53.298Z,11.68
2023-02-18T00:54:02.694Z,11.69
2023-02-18T00:55:16.029Z,11.72
2023-02-18T00:56:21.888Z,11.69
2023-02-18T00:57:27.859Z,11.74
2023-02-18T00:58:41.041Z,11.74
2023-02-18T00:59:45.551Z,11.82
2023-02-18T01:00:50.664Z,11.78
2023-02-18T01:01:55.480Z,11.76
2023-02-18T01:03:00.138Z,11.83
2023-02-18T01:04:04.726Z,11.79
2023-02-18T01:05:17.842Z,11.76
2023-02-18T01:06:25.901Z,11.82
2023-02-18T01:07:31.806Z,11.84
2023-02-18T01:08:38.268Z,11.88
2023-02-18T01:09:42.497Z,11.84
2023-02-18T01:10:50.347Z,11.89
2023-02-18T01:11:59.570Z,11.91
2023-02-18T01:13:09.967Z,11.97
2023-02-18T01:14:14.983Z,11.86
2023-02-18T01:15:20.918Z,11.96
2023-02-18T01:16:27.056Z,11.87
2023-02-18T01:17:41.497Z,11.93
2023-02-18T01:18:53.992Z,11.94
2023-02-18T01:20:12.564Z,11.87
2023-02-18T01:21:18.913Z,11.83
2023-02-18T01:22:24.481Z,11.78
2023-02-18T01:23:41.750Z,11.82
2023-02-18T01:24:49.151Z,11.75
2023-02-18T01:25:59.179Z,11.65
2023-02-18T01:27:15.807Z,11.67
2023-02-18T01:28:25.712Z,11.60
2023-02-18T01:29:33.497Z,11.60
2023-02-18T01:30:38.443Z,11.52
2023-02-18T01:31:49.561Z,11.52
2023-02-18T01:34:40.037Z,11.48
2023-02-18T01:35:47.449Z,11.38
2023-02-18T01:36:52.181Z,11.38
2023-02-18T01:37:59.465Z,11.33
2023-02-18T01:39:37.657Z,11.24
2023-02-18T01:40:59.592Z,11.28
2023-02-18T01:42:34.191Z,11.19
2023-02-18T01:43:47.932Z,11.25
2023-02-18T01:45:42.684Z,11.29
2023-02-18T01:46:51.780Z,11.20
2023-02-18T01:48:04.858Z,11.10
2023-02-18T01:49:36.921Z,11.19
2023-02-18T01:50:49.397Z,11.11
2023-02-18T01:52:05.401Z,11.09
2023-02-18T01:55:16.583Z,11.03
2023-02-18T01:57:01.714Z,11.08
2023-02-18T01:58:19.670Z,10.95
2023-02-18T01:59:38.797Z,11.00
2023-02-18T02:00:49.060Z,10.98
2023-02-18T02:02:18.809Z,10.96
2023-02-18T02:03:30.164Z,10.96
2023-02-18T02:04:41.346Z,10.95
2023-02-18T02:05:49.932Z,10.96
2023-02-18T02:06:57.304Z,10.87
2023-02-18T02:08:04.881Z,10.86
2023-02-18T02:09:32.037Z,10.86
2023-02-18T02:10:54.394Z,10.94
2023-02-18T02:12:40.180Z,10.93
2023-02-18T02:14:25.408Z,10.94
2023-02-18T02:15:36.503Z,10.95
2023-02-18T02:17:42.810Z,11.00
2023-02-18T02:19:40.229Z,10.98
2023-02-18T02:21:24.262Z,10.99
2023-02-18T02:23:19.422Z,11.04
2023-02-18T02:25:00.090Z,10.98
2023-02-18T02:26:48.756Z,10.96
2023-02-18T02:30:37.883Z,10.92
2023-02-18T02:32:50.613Z,10.87
2023-02-18T02:35:49.759Z,10.85
2023-02-18T02:37:35.157Z,10.84
2023-02-18T02:39:33.980Z,10.84
2023-02-18T02:40:52.412Z,10.85
2023-02-18T02:42:18.377Z,10.87
2023-02-18T02:44:03.608Z,10.86
2023-02-18T02:45:34.400Z,10.80
2023-02-18T02:46:48.510Z,10.68
2023-02-18T02:48:15.231Z,10.75
2023-02-18T02:49:52.691Z,10.73
2023-02-18T02:51:43.003Z,10.72
2023-02-18T02:52:58.223Z,10.70
2023-02-18T02:54:22.875Z,10.67
2023-02-18T02:55:28.347Z,10.75
2023-02-18T02:56:44.484Z,10.71
2023-02-18T05:15:27.908Z,9.80
2023-02-18T05:16:32.606Z,9.83
2023-02-18T05:17:37.085Z,9.80
2023-02-18T05:18:41.617Z,9.79
2023-02-18T05:19:45.760Z,9.73
2023-02-18T05:20:50.244Z,9.81
2023-02-18T05:21:54.384Z,9.81
2023-02-18T05:22:59.128Z,9.77
2023-02-18T05:24:10.377Z,9.75
2023-02-18T05:25:15.330Z,9.75
2023-02-18T05:26:21.388Z,9.77
2023-02-18T05:27:26.426Z,9.71
2023-02-18T05:28:31.859Z,9.72
2023-02-18T05:29:36.617Z,9.71
2023-02-18T05:30:43.364Z,9.64
2023-02-18T05:31:49.667Z,9.64
2023-02-18T05:32:54.363Z,9.65
2023-02-18T05:33:59.727Z,9.74
2023-02-18T05:35:12.500Z,9.76
2023-02-18T05:36:18.842Z,9.77
2023-02-18T05:37:23.968Z,9.70
2023-02-18T05:38:29.628Z,9.73
2023-02-18T05:39:35.577Z,9.76
2023-02-18T05:40:40.224Z,9.75
2023-02-18T05:41:44.883Z,9.77
2023-02-18T05:42:52.618Z,9.71
2023-02-18T05:44:17.459Z,9.73
2023-02-18T05:45:22.606Z,9.73
2023-02-18T05:46:27.431Z,9.73
2023-02-18T05:47:32.449Z,9.66
2023-02-18T05:48:36.648Z,9.71
2023-02-18T05:49:43.373Z,9.72
2023-02-18T05:50:47.623Z,9.74
2023-02-18T05:51:55.655Z,9.72
2023-02-18T05:53:00.461Z,9.73
2023-02-18T05:54:06.606Z,9.69
2023-02-18T05:55:14.875Z,9.70
2023-02-18T05:56:19.363Z,9.67
2023-02-18T05:57:24.018Z,9.70
2023-02-18T05:58:28.333Z,9.60
2023-02-18T05:59:33.363Z,9.70
2023-02-18T06:00:37.545Z,9.65
2023-02-18T06:01:43.348Z,9.65
2023-02-18T06:02:49.246Z,9.57
2023-02-18T06:03:54.013Z,9.65
2023-02-18T06:04:58.489Z,9.62
2023-02-18T06:06:03.240Z,9.53
2023-02-18T06:07:12.052Z,9.57
2023-02-18T06:08:21.028Z,9.63
2023-02-18T06:09:25.564Z,9.54
2023-02-18T06:10:29.925Z,9.63
2023-02-18T06:11:35.804Z,9.64
2023-02-18T06:12:40.046Z,9.62
2023-02-18T06:13:48.432Z,9.67
2023-02-18T06:14:53.259Z,9.59
2023-02-18T06:15:59.721Z,9.67
2023-02-18T06:17:09.041Z,9.75
2023-02-18T06:18:13.416Z,9.67
2023-02-18T06:19:20.427Z,9.67
2023-02-18T06:20:30.215Z,9.63
2023-02-18T06:21:34.834Z,9.57
2023-02-18T06:22:39.122Z,9.64
2023-02-18T06:23:43.696Z,9.64
2023-02-18T06:24:48.249Z,9.58
2023-02-18T06:26:01.219Z,9.57
2023-02-18T06:27:10.417Z,9.61
2023-02-18T06:28:14.697Z,9.66
2023-02-18T06:29:19.004Z,9.70
2023-02-18T06:30:24.341Z,9.63
2023-02-18T06:31:29.314Z,9.72
2023-02-18T06:32:34.505Z,9.76
2023-02-18T06:33:38.992Z,9.75
2023-02-18T06:34:43.652Z,9.81
2023-02-18T06:36:00.581Z,9.86
2023-02-18T06:37:04.936Z,9.80
2023-02-18T06:38:13.182Z,9.84
2023-02-18T06:39:32.594Z,9.83
2023-02-18T06:40:48.691Z,9.80
2023-02-18T06:41:53.401Z,9.80
2023-02-18T06:42:57.553Z,9.73
2023-02-18T06:44:02.203Z,9.81
2023-02-18T06:45:11.686Z,9.82
2023-02-18T06:46:15.660Z,9.81
2023-02-18T06:47:20.329Z,9.78
2023-02-18T06:48:25.531Z,9.80
2023-02-18T06:49:30.814Z,9.83
2023-02-18T06:50:34.965Z,9.87
2023-02-18T06:51:39.036Z,9.82
2023-02-18T06:52:43.033Z,9.90
2023-02-18T06:53:47.803Z,9.93
2023-02-18T06:54:55.362Z,9.95
2023-02-18T06:55:59.770Z,9.93
2023-02-18T06:57:09.062Z,9.98
2023-02-18T06:58:15.352Z,9.99
2023-02-18T06:59:19.657Z,9.91
2023-02-18T07:00:27.097Z,9.91
2023-02-18T07:01:31.611Z,9.89
2023-02-18T07:02:36.050Z,9.93
2023-02-18T07:03:40.599Z,10.02
2023-02-18T07:04:46.340Z,9.98
2023-02-18T07:05:50.899Z,9.99
2023-02-18T07:06:55.221Z,10.03
2023-02-18T07:07:59.714Z,10.00
2023-02-18T07:09:12.507Z,10.00
2023-02-18T07:10:16.714Z,9.91
2023-02-18T07:11:21.137Z,9.97
2023-02-18T07:12:25.194Z,9.97
2023-02-18T07:13:29.579Z,10.03
2023-02-18T07:14:33.555Z,10.05
2023-02-18T07:15:37.629Z,10.11
2023-02-18T07:16:41.966Z,10.09
2023-02-18T07:17:46.252Z,10.04
2023-02-18T07:18:50.235Z,10.17
2023-02-18T07:19:55.945Z,10.20
2023-02-18T07:21:00.285Z,10.19
2023-02-18T07:22:04.488Z,10.25
2023-02-18T07:23:13.304Z,10.24
2023-02-18T07:24:17.948Z,10.25
2023-02-18T07:25:24.029Z,10.23
2023-02-18T07:26:28.792Z,10.24
2023-02-18T07:27:33.670Z,10.29
2023-02-18T07:28:41.194Z,10.30
2023-02-18T07:29:50.885Z,10.32
2023-02-18T07:30:55.161Z,10.33
2023-02-18T07:32:01.342Z,10.32
2023-02-18T07:33:11.495Z,10.33
2023-02-18T07:34:17.122Z,10.27
2023-02-18T07:35:23.017Z,10.32
2023-02-18T07:36:27.642Z,10.29
2023-02-18T07:37:33.465Z,10.31
2023-02-18T07:38:38.309Z,10.44
2023-02-18T07:39:45.023Z,10.39
2023-02-18T07:40:50.896Z,10.37
2023-02-18T07:41:56.000Z,10.37
2023-02-18T07:43:01.572Z,10.37
2023-02-18T07:44:15.634Z,10.36
2023-02-18T07:45:22.371Z,10.30
2023-02-18T07:46:28.558Z,10.34
2023-02-18T07:47:33.503Z,10.31
2023-02-18T07:48:38.555Z,10.33
2023-02-18T07:49:49.016Z,10.32
2023-02-18T07:50:57.728Z,10.37
2023-02-18T07:52:14.278Z,10.39
2023-02-18T07:53:20.708Z,10.39
2023-02-18T07:54:27.226Z,10.34
2023-02-18T07:55:50.967Z,10.42
2023-02-18T07:56:55.229Z,10.43
2023-02-18T07:58:02.686Z,10.41
2023-02-18T07:59:12.291Z,10.39
2023-02-18T08:00:17.425Z,10.37
2023-02-18T08:01:21.458Z,10.40
2023-02-18T08:02:27.257Z,10.40
2023-02-18T08:03:33.659Z,10.36
2023-02-18T08:04:38.711Z,10.32
2023-02-18T08:05:43.960Z,10.36
2023-02-18T08:06:54.290Z,10.36
2023-02-18T08:07:58.837Z,10.41
2023-02-18T08:09:05.202Z,10.41
2023-02-18T08:10:13.173Z,10.33
2023-02-18T08:11:19.665Z,10.45
2023-02-18T08:12:25.080Z,10.45
2023-02-18T08:13:31.616Z,10.43
2023-02-18T08:14:35.811Z,10.43
2023-02-18T08:15:41.078Z,10.44
2023-02-18T08:16:51.590Z,10.41
2023-02-18T08:17:56.163Z,10.50
2023-02-18T08:19:04.220Z,10.52
2023-02-18T08:20:14.478Z,10.40
2023-02-18T08:21:22.144Z,10.45
2023-02-18T08:22:26.235Z,10.42
2023-02-18T08:23:31.235Z,10.46
2023-02-18T08:24:36.217Z,10.43
2023-02-18T08:25:53.723Z,10.48
2023-02-18T08:27:01.224Z,10.41
2023-02-18T08:28:14.423Z,10.54
2023-02-18T08:29:19.843Z,10.44
2023-02-18T08:30:25.717Z,10.54
2023-02-18T08:31:32.191Z,10.46
2023-02-18T08:32:37.065Z,10.48
2023-02-18T08:33:42.840Z,10.45
2023-02-18T08:34:47.856Z,10.46
2023-02-18T08:35:54.760Z,10.58
2023-02-18T08:36:58.823Z,10.54
2023-02-18T08:38:03.954Z,10.55
2023-02-18T08:39:14.804Z,10.54
2023-02-18T13:18:58.651Z,9.84
2023-02-18T13:20:24.851Z,9.85
2023-02-18T13:21:32.916Z,9.78
2023-02-18T13:22:38.939Z,9.77
2023-02-18T13:23:57.976Z,9.75
2023-02-18T13:25:02.562Z,9.76
2023-02-18T13:26:14.443Z,9.76
2023-02-18T13:27:50.998Z,9.74
2023-02-18T13:29:30.467Z,9.74
2023-02-18T13:31:15.846Z,9.74
2023-02-18T13:33:10.304Z,9.66
2023-02-18T13:34:58.716Z,9.54
2023-02-18T13:36:38.248Z,9.58
2023-02-18T13:38:12.978Z,9.61
2023-02-18T13:39:22.401Z,9.62
2023-02-18T13:40:32.244Z,9.55
2023-02-18T13:41:52.920Z,9.55
2023-02-18T13:43:29.505Z,9.63
2023-02-18T13:44:55.198Z,9.52
2023-02-18T13:46:19.122Z,9.49
2023-02-18T13:47:50.728Z,9.54
2023-02-18T13:49:00.654Z,9.59
2023-02-18T13:50:23.350Z,9.66
2023-02-18T13:51:44.573Z,9.66
2023-02-18T13:53:03.863Z,9.64
2023-02-18T13:54:17.536Z,9.64
2023-02-18T13:55:35.802Z,9.66
2023-02-18T13:57:11.183Z,9.65
2023-02-18T13:58:24.790Z,9.51
2023-02-18T13:59:58.557Z,9.51
2023-02-18T14:01:11.864Z,9.58
2023-02-18T14:02:21.721Z,9.63
2023-02-18T14:03:52.370Z,9.51
2023-02-18T14:05:22.779Z,9.45
2023-02-18T14:07:27.594Z,9.45
2023-02-18T14:08:40.019Z,9.37
2023-02-18T14:09:48.469Z,9.34
2023-02-18T14:11:18.630Z,9.20
2023-02-18T14:12:40.527Z,9.16
2023-02-18T14:14:34.916Z,9.11
2023-02-18T14:16:00.313Z,9.15
2023-02-18T14:17:36.392Z,9.22
2023-02-18T14:18:40.470Z,9.13
2023-02-18T14:20:04.974Z,9.18
2023-02-18T14:21:12.981Z,9.15
2023-02-18T14:22:44.632Z,9.07
2023-02-18T14:24:01.105Z,9.19
2023-02-18T14:25:15.009Z,9.17
2023-02-18T14:26:33.791Z,9.22
2023-02-18T14:46:22.917Z,8.85
2023-02-18T14:49:54.504Z,8.86
2023-02-18T14:51:02.037Z,8.94
2023-02-18T14:52:28.305Z,8.97
2023-02-18T14:53:42.652Z,8.97
2023-02-18T14:54:49.980Z,9.02
2023-02-18T14:56:13.858Z,9.05
2023-02-18T14:57:31.070Z,9.06
2023-02-18T14:58:47.388Z,8.92
2023-02-18T15:00:02.495Z,8.96
2023-02-18T15:01:22.966Z,8.98
2023-02-18T15:02:33.385Z,8.98
2023-02-18T15:03:41.998Z,8.94
2023-02-18T15:04:47.898Z,8.95
2023-02-18T15:05:52.923Z,8.96
2023-02-18T15:07:14.056Z,8.99
2023-02-18T15:08:27.597Z,8.97
2023-02-18T15:09:32.261Z,9.02
2023-02-18T15:10:44.763Z,8.99
2023-02-18T15:12:25.624Z,8.89
2023-02-18T15:13:44.363Z,8.91
2023-02-18T15:14:54.278Z,8.90
2023-02-18T15:16:14.289Z,8.74
2023-02-18T15:17:44.520Z,8.81
2023-02-18T15:19:20.877Z,8.84
2023-02-18T15:20:41.607Z,8.82
2023-02-18T15:23:25.817Z,8.89
2023-02-18T15:24:44.137Z,8.89
2023-02-18T15:26:08.492Z,8.87
2023-02-18T15:27:21.843Z,8.91
2023-02-18T15:28:33.096Z,8.88
2023-02-18T15:29:41.155Z,8.88
2023-02-18T15:30:53.706Z,8.92
2023-02-18T15:31:59.995Z,8.94
2023-02-18T15:33:19.272Z,8.97
2023-02-18T15:34:44.635Z,8.92
2023-02-18T15:35:52.275Z,8.95
2023-02-18T15:37:03.072Z,8.94
2023-02-18T15:38:21.509Z,8.92
2023-02-18T15:39:29.780Z,8.87
2023-02-18T15:40:40.960Z,8.85
2023-02-18T15:41:57.686Z,8.78
2023-02-18T15:43:13.301Z,8.89
2023-02-18T15:44:38.533Z,8.91
2023-02-18T15:45:50.539Z,8.91
2023-02-18T15:46:56.377Z,8.95
2023-02-18T15:48:03.261Z,8.90
2023-02-18T15:49:21.170Z,8.94
2023-02-18T15:50:46.213Z,8.93
2023-02-18T15:52:02.004Z,8.92
2023-02-18T15:53:31.324Z,8.93
2023-02-18T15:54:43.708Z,8.93
2023-02-18T15:56:12.605Z,8.90
2023-02-18T15:57:20.894Z,8.87
2023-02-18T15:58:34.423Z,8.81
2023-02-18T15:59:58.404Z,8.75
2023-02-18T16:01:35.066Z,8.77
2023-02-18T16:03:15.839Z,8.81
2023-02-18T16:04:39.583Z,8.81
2023-02-18T16:05:43.958Z,8.76
2023-02-18T16:06:52.911Z,8.79
2023-02-18T16:08:10.495Z,8.84
2023-02-18T16:09:40.241Z,8.80
2023-02-18T16:11:15.005Z,8.84
2023-02-18T16:12:46.564Z,8.89
2023-02-18T16:13:54.816Z,8.88
2023-02-18T16:15:05.532Z,8.90
2023-02-18T16:16:35.181Z,8.87
2023-02-18T16:17:49.181Z,8.88
2023-02-18T16:18:57.469Z,8.90
2023-02-18T16:20:38.961Z,8.75
2023-02-18T16:21:47.831Z,8.68
2023-02-18T16:22:55.427Z,8.73
2023-02-18T16:24:03.306Z,8.70
2023-02-18T16:25:41.470Z,8.65
2023-02-18T16:26:47.440Z,8.69
2023-02-18T16:27:58.540Z,8.69
2023-02-18T16:29:16.232Z,8.69
2023-02-18T16:30:37.618Z,8.67
2023-02-18T16:31:50.227Z,8.65
2023-02-18T16:34:22.510Z,8.73
2023-02-18T16:35:43.960Z,8.75
2023-02-18T16:37:19.788Z,8.77
2023-02-18T16:38:26.462Z,8.78
2023-02-18T16:39:37.984Z,8.82
2023-02-18T16:40:42.431Z,8.86
2023-02-18T16:41:47.462Z,8.83
2023-02-18T16:42:53.002Z,8.87
2023-02-18T16:43:58.022Z,8.86
2023-02-18T16:45:08.778Z,8.89
2023-02-18T16:46:25.538Z,8.85
2023-02-18T16:47:49.830Z,8.83
2023-02-18T16:49:01.609Z,8.77
2023-02-18T16:50:21.391Z,8.78
2023-02-18T16:51:35.705Z,8.81
2023-02-18T16:52:40.645Z,8.78
2023-02-18T16:53:45.902Z,8.83
2023-02-18T16:54:53.796Z,8.86
2023-02-18T16:56:23.030Z,8.86
2023-02-18T16:57:29.342Z,8.84
2023-02-18T16:58:35.227Z,8.83
2023-02-18T16:59:39.052Z,8.75
2023-02-18T17:00:45.898Z,8.82
2023-02-18T17:01:56.367Z,8.79
2023-02-18T17:03:02.047Z,8.83
2023-02-18T17:05:31.461Z,8.92
2023-02-18T17:06:39.007Z,8.84
2023-02-18T17:07:43.289Z,8.91
2023-02-18T17:08:47.760Z,8.94
2023-02-18T17:09:52.026Z,8.97
2023-02-18T17:11:07.678Z,8.95
2023-02-18T17:12:14.026Z,9.01
2023-02-18T17:13:25.109Z,8.96
2023-02-18T17:14:34.030Z,9.07
2023-02-18T17:15:40.021Z,9.08
2023-02-18T17:16:55.410Z,9.06
2023-02-18T17:18:00.218Z,9.08
2023-02-18T17:19:04.459Z,9.04
2023-02-18T17:20:15.136Z,9.13
2023-02-18T17:21:24.462Z,9.15
2023-02-18T17:22:29.316Z,9.19
2023-02-18T17:23:33.741Z,9.21
2023-02-18T17:24:38.024Z,9.20
2023-02-18T17:25:43.429Z,9.26
2023-02-18T17:26:52.196Z,9.31
2023-02-18T17:27:57.887Z,9.34
2023-02-18T17:29:09.400Z,9.43
2023-02-18T17:30:14.946Z,9.45
2023-02-18T17:31:31.109Z,9.54
2023-02-18T17:32:47.097Z,9.60
2023-02-18T17:33:58.001Z,9.66
2023-02-18T17:35:08.209Z,9.73
2023-02-18T17:36:15.974Z,9.70
2023-02-18T17:37:22.439Z,9.85
2023-02-18T17:38:36.335Z,9.90
2023-02-18T17:39:43.700Z,9.90
2023-02-18T17:40:50.954Z,9.94
2023-02-18T17:41:55.627Z,10.05
2023-02-18T17:43:00.038Z,10.05
2023-02-18T17:44:18.851Z,10.13
2023-02-18T17:45:42.618Z,10.18
2023-02-18T17:46:55.246Z,10.25
2023-02-18T17:48:05.210Z,10.26
2023-02-18T17:49:14.156Z,10.34
2023-02-18T17:50:20.399Z,10.34
2023-02-18T17:51:30.214Z,10.45
2023-02-18T17:52:36.555Z,10.50
2023-02-18T17:53:40.408Z,10.61
2023-02-18T17:54:44.640Z,10.66
2023-02-18T17:55:59.632Z,10.67
2023-02-18T17:57:09.838Z,10.68
2023-02-18T17:58:15.952Z,10.71
2023-02-18T17:59:23.940Z,10.77
2023-02-18T18:00:37.679Z,10.77
2023-02-18T18:01:48.588Z,10.74
2023-02-18T18:02:54.035Z,10.78
2023-02-18T18:04:00.614Z,10.72
2023-02-18T18:05:08.468Z,10.82
2023-02-18T18:06:18.844Z,10.86
2023-02-18T18:07:24.245Z,10.78
2023-02-18T18:08:42.506Z,10.89
2023-02-18T18:09:58.355Z,10.88
2023-02-18T18:11:03.312Z,10.90
2023-02-18T18:12:10.333Z,10.94
2023-02-18T18:13:22.470Z,10.96
2023-02-18T18:14:29.940Z,11.00
2023-02-18T18:15:39.953Z,10.97
2023-02-18T18:16:44.201Z,10.99
2023-02-18T18:17:48.991Z,10.93
2023-02-18T18:18:53.016Z,10.99
2023-02-18T18:20:02.440Z,10.99
2023-02-18T18:21:42.093Z,10.95
2023-02-18T18:22:46.938Z,10.89
2023-02-18T18:23:51.567Z,10.93
2023-02-18T18:24:56.140Z,10.90
2023-02-18T18:26:06.290Z,10.94
2023-02-18T18:27:26.072Z,10.94
2023-02-18T18:28:33.822Z,10.94
2023-02-18T18:29:38.714Z,10.98
2023-02-18T18:30:58.138Z,10.94
2023-02-18T18:32:02.955Z,10.93
2023-02-18T18:33:31.462Z,10.93
2023-02-18T18:34:36.978Z,10.92
2023-02-18T18:35:41.459Z,10.95
2023-02-18T18:36:51.359Z,10.93
2023-02-18T18:37:59.826Z,10.97
2023-02-18T18:39:12.363Z,10.97
2023-02-18T18:40:18.478Z,11.02
2023-02-18T18:41:23.882Z,10.88
2023-02-18T18:42:32.627Z,10.97
2023-02-18T18:43:39.291Z,10.92
2023-02-18T18:44:46.892Z,10.96
2023-02-18T18:45:54.543Z,10.94
2023-02-18T18:46:59.877Z,10.84
2023-02-18T18:48:11.843Z,10.96
2023-02-18T18:49:16.471Z,10.93
2023-02-18T18:50:23.770Z,10.86
2023-02-18T18:51:34.619Z,10.92
2023-02-18T18:52:40.674Z,10.85
2023-02-18T18:53:44.890Z,10.95
2023-02-18T18:54:50.529Z,10.91
2023-02-18T18:56:02.797Z,10.93
2023-02-18T18:57:11.422Z,10.99
2023-02-18T18:58:21.931Z,10.90
2023-02-18T18:59:26.578Z,10.88
2023-02-18T19:00:48.212Z,10.84
2023-02-18T19:01:55.359Z,10.92
2023-02-18T19:03:10.010Z,10.89
2023-02-18T19:04:15.423Z,10.92
2023-02-18T19:05:36.974Z,10.92
2023-02-18T19:06:44.431Z,10.92
2023-02-18T19:07:52.041Z,10.91
2023-02-18T19:08:57.462Z,10.92
2023-02-18T19:10:02.063Z,10.86
2023-02-18T19:11:14.085Z,10.92
2023-02-18T19:12:25.068Z,10.88
2023-02-18T19:13:38.782Z,10.88
2023-02-18T19:14:43.385Z,10.91
2023-02-18T19:15:49.868Z,10.90
2023-02-18T19:16:56.583Z,10.95
2023-02-18T19:18:02.124Z,10.96
2023-02-18T19:19:13.003Z,10.90
2023-02-18T19:20:31.253Z,10.89
2023-02-18T19:21:36.756Z,10.85
2023-02-18T19:22:43.860Z,10.92
2023-02-18T19:23:48.890Z,10.92
2023-02-18T19:24:53.776Z,10.95
2023-02-18T19:26:02.850Z,10.96
2023-02-18T19:27:23.290Z,10.89
2023-02-18T19:28:28.404Z,10.90
2023-02-18T19:29:46.743Z,10.96
2023-02-18T19:30:57.157Z,10.92
2023-02-18T19:32:02.881Z,10.92
2023-02-18T19:33:11.493Z,10.99
2023-02-18T19:34:15.837Z,10.93
2023-02-18T19:35:26.247Z,10.96
2023-02-18T19:36:35.871Z,10.89
2023-02-18T19:37:42.747Z,10.89
2023-02-18T19:38:57.164Z,10.99
2023-02-18T19:40:25.422Z,10.93
2023-02-18T21:35:41.882Z,10.14
2023-02-18T21:36:46.318Z,10.15
2023-02-18T21:37:54.176Z,10.17
2023-02-18T21:39:05.139Z,10.16
2023-02-18T21:40:11.041Z,10.17
2023-02-18T21:41:15.733Z,10.14
2023-02-18T21:42:23.430Z,10.16
2023-02-18T21:43:27.405Z,10.12
2023-02-18T21:44:41.842Z,10.13
2023-02-18T21:45:46.718Z,10.09
2023-02-18T21:46:50.623Z,10.09
2023-02-18T21:47:54.816Z,10.11
2023-02-18T21:49:10.279Z,10.14
2023-02-18T21:50:15.726Z,10.10
2023-02-18T21:51:40.655Z,10.09
2023-02-18T21:52:44.644Z,10.09
2023-02-18T21:53:54.350Z,10.06
2023-02-18T21:55:00.283Z,10.05
2023-02-18T21:56:30.355Z,10.01
2023-02-18T21:57:34.909Z,10.02
2023-02-18T21:58:38.711Z,10.07
2023-02-18T21:59:45.372Z,10.02
2023-02-18T22:00:58.492Z,10.02
2023-02-18T22:02:13.433Z,10.06
2023-02-18T22:03:17.383Z,10.04
2023-02-18T22:04:25.551Z,9.99
2023-02-18T22:05:33.733Z,9.91
2023-02-18T22:06:38.035Z,9.89
2023-02-18T22:07:42.092Z,9.86
2023-02-18T22:08:53.121Z,9.90
2023-02-18T22:09:57.002Z,9.86
2023-02-18T22:11:18.728Z,9.82
2023-02-18T22:12:25.315Z,9.78
2023-02-18T22:13:29.222Z,9.85
2023-02-18T22:14:33.377Z,9.79
2023-02-18T22:15:39.788Z,9.77
2023-02-18T22:16:45.112Z,9.77
2023-02-18T22:17:49.438Z,9.73
2023-02-18T22:18:53.469Z,9.77
2023-02-18T22:19:57.237Z,9.76
2023-02-18T22:21:09.785Z,9.71
2023-02-18T22:22:13.736Z,9.76
2023-02-18T22:23:18.946Z,9.77
2023-02-18T22:24:22.599Z,9.78
2023-02-18T22:25:26.416Z,9.75
2023-02-18T22:26:30.708Z,9.75
2023-02-18T22:27:38.183Z,9.74
2023-02-18T22:28:42.372Z,9.76
2023-02-18T22:29:50.630Z,9.76
2023-02-18T22:30:54.462Z,9.76
2023-02-18T22:31:58.326Z,9.77
2023-02-18T22:33:02.011Z,9.75
2023-02-18T22:34:12.868Z,9.73
2023-02-18T22:35:20.056Z,9.71
2023-02-18T22:36:26.190Z,9.68
2023-02-18T22:37:30.450Z,9.66
2023-02-18T22:38:37.236Z,9.70
2023-02-18T22:39:41.354Z,9.70
2023-02-18T22:40:45.318Z,9.70
2023-02-18T22:41:52.701Z,9.64
2023-02-18T22:42:56.246Z,9.63
2023-02-18T22:44:12.458Z,9.63
2023-02-18T22:45:16.385Z,9.63
2023-02-18T22:46:20.049Z,9.58
2023-02-18T22:47:23.950Z,9.57
2023-02-18T22:48:27.976Z,9.63
2023-02-18T22:49:32.105Z,9.56
2023-02-18T22:50:38.599Z,9.58
2023-02-18T22:51:45.430Z,9.59
2023-02-18T22:52:49.217Z,9.56
2023-02-18T22:53:57.058Z,9.60
2023-02-18T22:55:01.088Z,9.59
2023-02-18T22:56:24.256Z,9.57
2023-02-18T22:57:36.254Z,9.55
2023-02-18T22:58:44.674Z,9.50
2023-02-18T22:59:52.992Z,9.52
2023-02-18T23:00:58.879Z,9.54
2023-02-18T23:02:02.608Z,9.54
2023-02-18T23:03:10.745Z,9.51
2023-02-18T23:04:18.203Z,9.53
2023-02-18T23:05:22.046Z,9.51
2023-02-18T23:06:26.334Z,9.60
2023-02-18T23:07:30.095Z,9.57
2023-02-18T23:08:33.959Z,9.57
2023-02-18T23:09:38.064Z,9.60
2023-02-18T23:10:44.797Z,9.59
2023-02-18T23:11:58.285Z,9.58
2023-02-18T23:13:02.176Z,9.61
2023-02-18T23:14:18.680Z,9.63
2023-02-18T23:15:22.413Z,9.60
2023-02-18T23:16:26.176Z,9.59
2023-02-18T23:17:29.790Z,9.58
2023-02-18T23:18:35.710Z,9.55
2023-02-18T23:19:48.181Z,9.58
2023-02-18T23:21:11.890Z,9.55
2023-02-18T23:22:34.221Z,9.46
2023-02-18T23:23:40.788Z,9.40
2023-02-18T23:24:47.020Z,9.44
2023-02-18T23:25:55.807Z,9.49
2023-02-18T23:26:59.669Z,9.43
2023-02-18T23:28:03.493Z,9.44
2023-02-18T23:29:07.562Z,9.42
2023-02-18T23:30:12.672Z,9.44
2023-02-18T23:31:26.459Z,9.43
2023-02-18T23:32:32.116Z,9.41
2023-02-18T23:33:36.093Z,9.40
2023-02-18T23:34:56.628Z,9.44
2023-02-18T23:36:18.270Z,9.42
2023-02-18T23:37:43.829Z,9.47
2023-02-18T23:38:55.272Z,9.51
2023-02-18T23:40:00.910Z,9.52
2023-02-18T23:41:05.597Z,9.48
2023-02-18T23:42:10.498Z,9.40
2023-02-18T23:43:15.581Z,9.44
2023-02-18T23:44:26.523Z,9.40
2023-02-18T23:45:30.656Z,9.40
2023-02-18T23:46:35.290Z,9.37
2023-02-18T23:47:45.405Z,9.38
2023-02-18T23:48:54.932Z,9.38
2023-02-18T23:50:01.733Z,9.38
2023-02-18T23:51:08.577Z,9.37
2023-02-18T23:52:13.969Z,9.44
2023-02-18T23:53:18.138Z,9.46
2023-02-18T23:54:25.477Z,9.38
2023-02-18T23:55:29.819Z,9.43
2023-02-18T23:56:33.826Z,9.45
2023-02-18T23:57:38.930Z,9.44
2023-02-18T23:58:46.741Z,9.46
2023-02-18T23:59:51.016Z,9.49
